sensor_id;sensor_type;location;lat;lon;timestamp;pressure;altitude;pressure_sealevel;temperature;humidity
41334;BME280;27078;46.428;6.256;2023-02-15T00:02:22;97808.22;;;2.80;100.00
41334;BME280;27078;46.428;6.256;2023-02-15T00:04:49;97811.94;;;2.73;100.00
41334;BME280;27078;46.428;6.256;2023-02-15T00:07:16;97804.97;;;2.73;100.00
41334;BME280;27078;46.428;6.256;2023-02-15T00:09:42;97803.66;;;2.61;100.00
41334;BME280;27078;46.428;6.256;2023-02-15T00:12:09;97804.84;;;2.53;100.00
41334;BME280;27078;46.428;6.256;2023-02-15T00:14:34;97799.69;;;2.50;100.00
41334;BME280;27078;46.428;6.256;2023-02-15T00:17:00;97801.22;;;2.57;100.00
41334;BME280;27078;46.428;6.256;2023-02-15T00:19:25;97802.47;;;2.45;100.00
41334;BME280;27078;46.428;6.256;2023-02-15T00:21:52;97804.56;;;2.35;100.00
41334;BME280;27078;46.428;6.256;2023-02-15T00:24:18;97797.81;;;2.30;100.00
41334;BME280;27078;46.428;6.256;2023-02-15T00:26:45;97804.94;;;2.24;100.00
41334;BME280;27078;46.428;6.256;2023-02-15T00:29:12;97807.63;;;2.21;100.00
41334;BME280;27078;46.428;6.256;2023-02-15T00:31:38;97805.06;;;2.20;100.00
41334;BME280;27078;46.428;6.256;2023-02-15T00:34:12;97801.94;;;2.10;100.00
41334;BME280;27078;46.428;6.256;2023-02-15T00:36:39;97803.53;;;2.14;100.00
41334;BME280;27078;46.428;6.256;2023-02-15T00:39:05;97801.47;;;2.24;100.00
41334;BME280;27078;46.428;6.256;2023-02-15T00:41:34;97802.41;;;2.21;100.00
41334;BME280;27078;46.428;6.256;2023-02-15T00:43:59;97803.22;;;2.23;100.00
41334;BME280;27078;46.428;6.256;2023-02-15T00:46:24;97798.13;;;2.20;100.00
41334;BME280;27078;46.428;6.256;2023-02-15T00:48:50;97792.34;;;2.11;100.00
41334;BME280;27078;46.428;6.256;2023-02-15T00:51:16;97798.63;;;2.05;100.00
41334;BME280;27078;46.428;6.256;2023-02-15T00:53:42;97790.78;;;2.05;100.00
41334;BME280;27078;46.428;6.256;2023-02-15T00:56:08;97790.00;;;2.03;100.00
41334;BME280;27078;46.428;6.256;2023-02-15T00:58:34;97795.22;;;2.03;100.00
41334;BME280;27078;46.428;6.256;2023-02-15T01:01:08;97792.19;;;2.15;100.00
41334;BME280;27078;46.428;6.256;2023-02-15T01:03:34;97787.25;;;2.08;100.00
41334;BME280;27078;46.428;6.256;2023-02-15T01:06:00;97778.84;;;1.99;100.00
41334;BME280;27078;46.428;6.256;2023-02-15T01:08:25;97785.09;;;1.94;100.00
41334;BME280;27078;46.428;6.256;2023-02-15T01:10:51;97782.88;;;2.08;100.00
41334;BME280;27078;46.428;6.256;2023-02-15T01:13:17;97790.59;;;2.11;100.00
41334;BME280;27078;46.428;6.256;2023-02-15T01:15:43;97792.13;;;2.18;100.00
41334;BME280;27078;46.428;6.256;2023-02-15T01:18:09;97793.78;;;2.19;100.00
41334;BME280;27078;46.428;6.256;2023-02-15T01:20:36;97792.53;;;2.06;100.00
41334;BME280;27078;46.428;6.256;2023-02-15T01:23:05;97782.25;;;2.01;100.00
41334;BME280;27078;46.428;6.256;2023-02-15T01:25:32;97787.66;;;1.95;100.00
41334;BME280;27078;46.428;6.256;2023-02-15T01:27:58;97784.69;;;2.06;100.00
41334;BME280;27078;46.428;6.256;2023-02-15T01:30:23;97790.91;;;2.02;100.00
41334;BME280;27078;46.428;6.256;2023-02-15T01:32:49;97797.13;;;1.98;100.00
41334;BME280;27078;46.428;6.256;2023-02-15T01:35:14;97791.06;;;1.97;100.00
41334;BME280;27078;46.428;6.256;2023-02-15T01:37:39;97787.03;;;2.14;100.00
41334;BME280;27078;46.428;6.256;2023-02-15T01:40:07;97785.59;;;2.05;100.00
41334;BME280;27078;46.428;6.256;2023-02-15T01:42:34;97784.69;;;2.06;100.00
41334;BME280;27078;46.428;6.256;2023-02-15T01:45:04;97781.19;;;2.07;100.00
41334;BME280;27078;46.428;6.256;2023-02-15T01:47:37;97782.19;;;2.03;100.00
41334;BME280;27078;46.428;6.256;2023-02-15T01:52:56;97783.91;;;2.04;100.00
41334;BME280;27078;46.428;6.256;2023-02-15T01:55:24;97775.06;;;2.08;100.00
41334;BME280;27078;46.428;6.256;2023-02-15T01:57:52;97777.69;;;2.08;100.00
41334;BME280;27078;46.428;6.256;2023-02-15T02:00:18;97779.47;;;2.06;100.00
41334;BME280;27078;46.428;6.256;2023-02-15T02:02:45;97772.66;;;2.02;100.00
41334;BME280;27078;46.428;6.256;2023-02-15T02:05:13;97766.63;;;2.01;100.00
41334;BME280;27078;46.428;6.256;2023-02-15T02:07:41;97765.84;;;1.98;100.00
41334;BME280;27078;46.428;6.256;2023-02-15T02:10:09;97760.66;;;1.98;100.00
41334;BME280;27078;46.428;6.256;2023-02-15T02:12:36;97757.34;;;1.93;100.00
41334;BME280;27078;46.428;6.256;2023-02-15T02:15:04;97762.25;;;2.02;100.00
41334;BME280;27078;46.428;6.256;2023-02-15T02:32:05;97750.22;;;1.98;100.00
41334;BME280;27078;46.428;6.256;2023-02-15T02:34:44;97753.75;;;1.97;100.00
41334;BME280;27078;46.428;6.256;2023-02-15T02:37:24;97752.72;;;2.01;100.00
41334;BME280;27078;46.428;6.256;2023-02-15T02:40:15;97755.63;;;1.92;100.00
41334;BME280;27078;46.428;6.256;2023-02-15T02:42:49;97752.44;;;1.83;100.00
41334;BME280;27078;46.428;6.256;2023-02-15T02:45:26;97750.94;;;1.76;100.00
41334;BME280;27078;46.428;6.256;2023-02-15T02:47:59;97755.22;;;1.77;100.00
41334;BME280;27078;46.428;6.256;2023-02-15T02:50:27;97758.44;;;1.86;100.00
41334;BME280;27078;46.428;6.256;2023-02-15T02:52:55;97753.16;;;1.89;100.00
41334;BME280;27078;46.428;6.256;2023-02-15T02:55:44;97758.72;;;1.78;100.00
41334;BME280;27078;46.428;6.256;2023-02-15T02:58:28;97764.13;;;1.72;100.00
41334;BME280;27078;46.428;6.256;2023-02-15T03:01:15;97751.34;;;1.64;100.00
41334;BME280;27078;46.428;6.256;2023-02-15T03:03:49;97759.78;;;1.71;100.00
41334;BME280;27078;46.428;6.256;2023-02-15T03:06:19;97758.78;;;1.75;100.00
41334;BME280;27078;46.428;6.256;2023-02-15T03:08:48;97759.56;;;1.78;100.00
41334;BME280;27078;46.428;6.256;2023-02-15T03:11:15;97754.22;;;1.81;100.00
41334;BME280;27078;46.428;6.256;2023-02-15T03:13:42;97756.75;;;1.85;100.00
41334;BME280;27078;46.428;6.256;2023-02-15T03:16:09;97761.16;;;1.82;100.00
41334;BME280;27078;46.428;6.256;2023-02-15T03:18:58;97757.03;;;1.75;100.00
41334;BME280;27078;46.428;6.256;2023-02-15T03:24:12;97755.38;;;1.73;100.00
41334;BME280;27078;46.428;6.256;2023-02-15T03:26:39;97744.94;;;1.74;100.00
41334;BME280;27078;46.428;6.256;2023-02-15T03:29:07;97752.03;;;1.69;100.00
41334;BME280;27078;46.428;6.256;2023-02-15T03:31:38;97747.09;;;1.61;100.00
41334;BME280;27078;46.428;6.256;2023-02-15T03:34:07;97752.72;;;1.48;100.00
41334;BME280;27078;46.428;6.256;2023-02-15T03:36:45;97751.41;;;1.34;100.00
41334;BME280;27078;46.428;6.256;2023-02-15T03:39:20;97759.59;;;1.22;100.00
41334;BME280;27078;46.428;6.256;2023-02-15T03:41:57;97760.41;;;1.24;100.00
41334;BME280;27078;46.428;6.256;2023-02-15T03:44:29;97760.63;;;1.16;100.00
41334;BME280;27078;46.428;6.256;2023-02-15T03:49:37;97763.38;;;1.12;100.00
41334;BME280;27078;46.428;6.256;2023-02-15T03:52:05;97763.22;;;1.16;100.00
41334;BME280;27078;46.428;6.256;2023-02-15T03:54:34;97757.78;;;1.24;100.00
41334;BME280;27078;46.428;6.256;2023-02-15T04:00:08;97761.69;;;1.11;100.00
41334;BME280;27078;46.428;6.256;2023-02-15T04:05:42;97760.25;;;1.00;100.00
41334;BME280;27078;46.428;6.256;2023-02-15T04:08:08;97757.13;;;0.89;100.00
41334;BME280;27078;46.428;6.256;2023-02-15T04:10:33;97761.41;;;0.90;100.00
41334;BME280;27078;46.428;6.256;2023-02-15T04:13:18;97764.13;;;0.87;100.00
41334;BME280;27078;46.428;6.256;2023-02-15T04:15:43;97758.28;;;0.79;100.00
41334;BME280;27078;46.428;6.256;2023-02-15T04:18:27;97758.25;;;0.80;100.00
41334;BME280;27078;46.428;6.256;2023-02-15T04:21:11;97756.69;;;0.73;100.00
41334;BME280;27078;46.428;6.256;2023-02-15T04:23:55;97753.78;;;0.84;100.00
41334;BME280;27078;46.428;6.256;2023-02-15T04:26:39;97757.13;;;0.89;100.00
41334;BME280;27078;46.428;6.256;2023-02-15T04:29:04;97763.16;;;0.90;100.00
41334;BME280;27078;46.428;6.256;2023-02-15T04:31:29;97751.81;;;0.92;100.00
41334;BME280;27078;46.428;6.256;2023-02-15T04:33:55;97765.56;;;0.97;100.00
41334;BME280;27078;46.428;6.256;2023-02-15T04:36:20;97759.34;;;1.01;100.00
41334;BME280;27078;46.428;6.256;2023-02-15T04:38:45;97755.81;;;1.04;100.00
41334;BME280;27078;46.428;6.256;2023-02-15T04:41:11;97762.75;;;1.04;100.00
41334;BME280;27078;46.428;6.256;2023-02-15T04:43:38;97763.66;;;1.02;100.00
41334;BME280;27078;46.428;6.256;2023-02-15T04:46:03;97760.06;;;1.07;100.00
41334;BME280;27078;46.428;6.256;2023-02-15T04:48:29;97762.03;;;0.98;100.00
41334;BME280;27078;46.428;6.256;2023-02-15T04:50:54;97768.22;;;0.94;100.00
41334;BME280;27078;46.428;6.256;2023-02-15T04:53:19;97755.50;;;0.85;100.00
41334;BME280;27078;46.428;6.256;2023-02-15T04:55:44;97761.22;;;0.67;100.00
41334;BME280;27078;46.428;6.256;2023-02-15T04:58:10;97762.88;;;0.69;100.00
41334;BME280;27078;46.428;6.256;2023-02-15T05:00:35;97771.19;;;0.82;100.00
41334;BME280;27078;46.428;6.256;2023-02-15T05:03:00;97761.69;;;0.81;100.00
41334;BME280;27078;46.428;6.256;2023-02-15T05:05:26;97758.34;;;0.76;100.00
41334;BME280;27078;46.428;6.256;2023-02-15T05:07:51;97766.25;;;0.73;100.00
41334;BME280;27078;46.428;6.256;2023-02-15T05:10:16;97763.47;;;0.79;100.00
41334;BME280;27078;46.428;6.256;2023-02-15T05:12:42;97758.63;;;0.67;100.00
41334;BME280;27078;46.428;6.256;2023-02-15T05:15:08;97759.47;;;0.67;100.00
41334;BME280;27078;46.428;6.256;2023-02-15T05:17:33;97766.31;;;0.99;100.00
41334;BME280;27078;46.428;6.256;2023-02-15T05:19:58;97760.06;;;1.07;100.00
41334;BME280;27078;46.428;6.256;2023-02-15T05:22:24;97762.63;;;1.08;100.00
41334;BME280;27078;46.428;6.256;2023-02-15T05:24:49;97763.03;;;0.94;100.00
41334;BME280;27078;46.428;6.256;2023-02-15T05:27:33;97756.94;;;0.95;100.00
41334;BME280;27078;46.428;6.256;2023-02-15T05:30:17;97757.28;;;1.13;100.00
41334;BME280;27078;46.428;6.256;2023-02-15T05:32:42;97756.84;;;0.98;100.00
41334;BME280;27078;46.428;6.256;2023-02-15T05:35:13;97766.53;;;0.93;100.00
41334;BME280;27078;46.428;6.256;2023-02-15T05:37:39;97757.84;;;0.93;100.00
41334;BME280;27078;46.428;6.256;2023-02-15T05:40:05;97760.88;;;0.79;100.00
41334;BME280;27078;46.428;6.256;2023-02-15T05:42:30;97759.22;;;0.76;100.00
41334;BME280;27078;46.428;6.256;2023-02-15T05:44:55;97754.88;;;0.77;100.00
41334;BME280;27078;46.428;6.256;2023-02-15T05:47:21;97759.44;;;0.69;100.00
41334;BME280;27078;46.428;6.256;2023-02-15T05:49:46;97755.75;;;0.76;100.00
41334;BME280;27078;46.428;6.256;2023-02-15T05:52:11;97761.13;;;0.70;100.00
41334;BME280;27078;46.428;6.256;2023-02-15T05:54:37;97765.44;;;0.71;100.00
41334;BME280;27078;46.428;6.256;2023-02-15T05:57:02;97763.56;;;0.76;100.00
41334;BME280;27078;46.428;6.256;2023-02-15T05:59:27;97762.66;;;0.77;100.00
41334;BME280;27078;46.428;6.256;2023-02-15T06:01:53;97761.59;;;0.84;100.00
41334;BME280;27078;46.428;6.256;2023-02-15T06:04:18;97766.94;;;0.79;100.00
41334;BME280;27078;46.428;6.256;2023-02-15T06:06:44;97759.97;;;0.80;100.00
41334;BME280;27078;46.428;6.256;2023-02-15T06:09:11;97772.25;;;0.75;100.00
41334;BME280;27078;46.428;6.256;2023-02-15T06:11:36;97769.50;;;0.81;100.00
41334;BME280;27078;46.428;6.256;2023-02-15T06:14:02;97767.53;;;0.89;100.00
41334;BME280;27078;46.428;6.256;2023-02-15T06:16:27;97773.59;;;0.88;100.00
41334;BME280;27078;46.428;6.256;2023-02-15T06:18:52;97776.38;;;0.82;100.00
41334;BME280;27078;46.428;6.256;2023-02-15T06:21:18;97781.44;;;0.87;100.00
41334;BME280;27078;46.428;6.256;2023-02-15T06:23:43;97781.66;;;0.80;100.00
41334;BME280;27078;46.428;6.256;2023-02-15T06:26:08;97790.38;;;0.78;100.00
41334;BME280;27078;46.428;6.256;2023-02-15T06:28:33;97785.97;;;0.80;100.00
41334;BME280;27078;46.428;6.256;2023-02-15T06:30:59;97790.19;;;0.84;100.00
41334;BME280;27078;46.428;6.256;2023-02-15T06:33:24;97795.69;;;0.75;100.00
41334;BME280;27078;46.428;6.256;2023-02-15T06:35:50;97790.81;;;0.63;100.00
41334;BME280;27078;46.428;6.256;2023-02-15T06:38:15;97798.59;;;0.63;100.00
41334;BME280;27078;46.428;6.256;2023-02-15T06:40:40;97791.06;;;0.53;100.00
41334;BME280;27078;46.428;6.256;2023-02-15T06:43:06;97796.31;;;0.52;100.00
41334;BME280;27078;46.428;6.256;2023-02-15T06:45:31;97797.63;;;0.67;100.00
41334;BME280;27078;46.428;6.256;2023-02-15T06:47:56;97792.44;;;0.67;100.00
41334;BME280;27078;46.428;6.256;2023-02-15T06:50:22;97795.69;;;0.75;100.00
41334;BME280;27078;46.428;6.256;2023-02-15T06:52:47;97804.47;;;0.71;100.00
41334;BME280;27078;46.428;6.256;2023-02-15T06:55:13;97800.59;;;0.84;100.00
41334;BME280;27078;46.428;6.256;2023-02-15T06:57:38;97798.75;;;0.89;100.00
41334;BME280;27078;46.428;6.256;2023-02-15T07:00:04;97804.19;;;0.80;100.00
41334;BME280;27078;46.428;6.256;2023-02-15T07:02:30;97798.47;;;0.98;100.00
41334;BME280;27078;46.428;6.256;2023-02-15T07:04:56;97791.66;;;0.94;100.00
41334;BME280;27078;46.428;6.256;2023-02-15T07:07:21;97794.03;;;1.02;100.00
41334;BME280;27078;46.428;6.256;2023-02-15T07:09:47;97798.84;;;0.85;100.00
41334;BME280;27078;46.428;6.256;2023-02-15T07:12:12;97803.13;;;0.87;100.00
41334;BME280;27078;46.428;6.256;2023-02-15T07:14:56;97800.47;;;0.89;100.00
41334;BME280;27078;46.428;6.256;2023-02-15T07:17:23;97794.22;;;0.96;100.00
41334;BME280;27078;46.428;6.256;2023-02-15T07:19:48;97793.84;;;1.08;100.00
41334;BME280;27078;46.428;6.256;2023-02-15T07:22:13;97788.25;;;1.20;100.00
41334;BME280;27078;46.428;6.256;2023-02-15T07:24:39;97793.88;;;1.36;100.00
41334;BME280;27078;46.428;6.256;2023-02-15T07:27:06;97785.09;;;1.39;100.00
41334;BME280;27078;46.428;6.256;2023-02-15T07:29:32;97784.72;;;1.51;100.00
41334;BME280;27078;46.428;6.256;2023-02-15T07:31:57;97787.28;;;1.53;100.00
41334;BME280;27078;46.428;6.256;2023-02-15T07:34:22;97787.78;;;1.64;100.00
41334;BME280;27078;46.428;6.256;2023-02-15T07:36:50;97785.69;;;1.75;100.00
41334;BME280;27078;46.428;6.256;2023-02-15T07:39:15;97784.31;;;1.92;100.00
41334;BME280;27078;46.428;6.256;2023-02-15T07:41:41;97792.91;;;2.20;100.00
41334;BME280;27078;46.428;6.256;2023-02-15T07:44:11;97787.16;;;2.36;100.00
41334;BME280;27078;46.428;6.256;2023-02-15T07:46:37;97778.13;;;2.46;100.00
41334;BME280;27078;46.428;6.256;2023-02-15T07:49:02;97787.88;;;2.64;100.00
41334;BME280;27078;46.428;6.256;2023-02-15T07:51:28;97782.03;;;2.81;100.00
41334;BME280;27078;46.428;6.256;2023-02-15T07:53:54;97778.38;;;2.87;100.00
41334;BME280;27078;46.428;6.256;2023-02-15T07:56:20;97786.53;;;3.01;100.00
41334;BME280;27078;46.428;6.256;2023-02-15T07:58:46;97785.16;;;3.15;100.00
41334;BME280;27078;46.428;6.256;2023-02-15T08:01:26;97778.66;;;3.26;100.00
41334;BME280;27078;46.428;6.256;2023-02-15T08:03:52;97772.06;;;3.38;100.00
41334;BME280;27078;46.428;6.256;2023-02-15T08:06:18;97771.78;;;3.46;100.00
41334;BME280;27078;46.428;6.256;2023-02-15T08:08:43;97771.59;;;3.51;100.00
41334;BME280;27078;46.428;6.256;2023-02-15T08:14:01;97772.22;;;3.79;100.00
41334;BME280;27078;46.428;6.256;2023-02-15T08:16:34;97763.88;;;3.92;100.00
41334;BME280;27078;46.428;6.256;2023-02-15T08:19:03;97763.47;;;4.01;100.00
41334;BME280;27078;46.428;6.256;2023-02-15T08:21:30;97756.22;;;4.07;100.00
41334;BME280;27078;46.428;6.256;2023-02-15T08:23:56;97760.28;;;4.15;100.00
41334;BME280;27078;46.428;6.256;2023-02-15T08:26:23;97757.97;;;4.27;100.00
41334;BME280;27078;46.428;6.256;2023-02-15T08:28:48;97761.91;;;4.38;100.00
41334;BME280;27078;46.428;6.256;2023-02-15T08:31:16;97753.53;;;4.50;100.00
41334;BME280;27078;46.428;6.256;2023-02-15T08:33:43;97750.66;;;4.56;100.00
41334;BME280;27078;46.428;6.256;2023-02-15T08:36:15;97755.28;;;4.70;100.00
41334;BME280;27078;46.428;6.256;2023-02-15T08:38:41;97748.91;;;4.76;100.00
41334;BME280;27078;46.428;6.256;2023-02-15T08:43:38;97738.13;;;5.02;100.00
41334;BME280;27078;46.428;6.256;2023-02-15T08:46:05;97737.84;;;5.08;100.00
41334;BME280;27078;46.428;6.256;2023-02-15T08:48:30;97734.50;;;5.24;100.00
41334;BME280;27078;46.428;6.256;2023-02-15T08:50:56;97734.34;;;5.27;100.00
41334;BME280;27078;46.428;6.256;2023-02-15T08:53:21;97735.59;;;5.37;100.00
41334;BME280;27078;46.428;6.256;2023-02-15T08:55:54;97731.84;;;5.43;100.00
41334;BME280;27078;46.428;6.256;2023-02-15T08:58:19;97734.25;;;5.47;100.00
41334;BME280;27078;46.428;6.256;2023-02-15T09:00:45;97733.88;;;5.55;100.00
41334;BME280;27078;46.428;6.256;2023-02-15T09:03:10;97729.91;;;5.65;100.00
41334;BME280;27078;46.428;6.256;2023-02-15T09:05:35;97728.50;;;5.76;100.00
41334;BME280;27078;46.428;6.256;2023-02-15T09:08:00;97728.91;;;5.85;100.00
41334;BME280;27078;46.428;6.256;2023-02-15T09:10:26;97719.06;;;5.90;100.00
41334;BME280;27078;46.428;6.256;2023-02-15T09:12:51;97717.53;;;6.04;100.00
41334;BME280;27078;46.428;6.256;2023-02-15T09:15:17;97717.13;;;6.11;100.00
41334;BME280;27078;46.428;6.256;2023-02-15T09:17:42;97727.25;;;6.19;100.00
41334;BME280;27078;46.428;6.256;2023-02-15T09:20:08;97716.44;;;6.25;100.00
41334;BME280;27078;46.428;6.256;2023-02-15T09:22:33;97716.84;;;6.35;100.00
41334;BME280;27078;46.428;6.256;2023-02-15T09:24:59;97710.41;;;6.41;100.00
41334;BME280;27078;46.428;6.256;2023-02-15T09:27:24;97711.94;;;6.45;100.00
41334;BME280;27078;46.428;6.256;2023-02-15T09:29:50;97707.53;;;6.45;100.00
41334;BME280;27078;46.428;6.256;2023-02-15T09:32:15;97713.78;;;6.43;100.00
41334;BME280;27078;46.428;6.256;2023-02-15T09:34:43;97715.38;;;6.63;100.00
41334;BME280;27078;46.428;6.256;2023-02-15T09:37:08;97714.19;;;6.68;100.00
41334;BME280;27078;46.428;6.256;2023-02-15T09:39:37;97721.16;;;6.85;100.00
41334;BME280;27078;46.428;6.256;2023-02-15T09:42:26;97716.44;;;6.92;100.00
41334;BME280;27078;46.428;6.256;2023-02-15T09:45:23;97716.38;;;7.09;100.00
41334;BME280;27078;46.428;6.256;2023-02-15T09:53:43;97715.63;;;7.39;100.00
41334;BME280;27078;46.428;6.256;2023-02-15T09:56:27;97714.53;;;7.43;100.00
41334;BME280;27078;46.428;6.256;2023-02-15T10:04:45;97717.31;;;7.86;100.00
41334;BME280;27078;46.428;6.256;2023-02-15T10:20:43;97690.34;;;8.13;100.00
41334;BME280;27078;46.428;6.256;2023-02-15T10:24:03;97692.16;;;8.27;100.00
41334;BME280;27078;46.428;6.256;2023-02-15T10:26:48;97691.00;;;8.47;100.00
41334;BME280;27078;46.428;6.256;2023-02-15T10:29:35;97689.66;;;8.54;100.00
41334;BME280;27078;46.428;6.256;2023-02-15T10:32:23;97685.34;;;8.67;100.00
41334;BME280;27078;46.428;6.256;2023-02-15T10:35:08;97686.38;;;8.65;100.00
41334;BME280;27078;46.428;6.256;2023-02-15T10:41:00;97680.81;;;8.98;100.00
41334;BME280;27078;46.428;6.256;2023-02-15T10:43:52;97674.03;;;9.08;97.30
41334;BME280;27078;46.428;6.256;2023-02-15T10:52:21;97669.16;;;9.29;94.83
41334;BME280;27078;46.428;6.256;2023-02-15T10:55:06;97672.38;;;9.20;95.20
41334;BME280;27078;46.428;6.256;2023-02-15T11:00:47;97650.38;;;9.48;92.86
41334;BME280;27078;46.428;6.256;2023-02-15T11:06:14;97647.06;;;9.72;90.34
41334;BME280;27078;46.428;6.256;2023-02-15T11:08:50;97641.81;;;9.85;95.02
41334;BME280;27078;46.428;6.256;2023-02-15T11:11:36;97647.53;;;10.04;95.67
41334;BME280;27078;46.428;6.256;2023-02-15T11:14:15;97641.59;;;10.13;89.53
41334;BME280;27078;46.428;6.256;2023-02-15T11:16:45;97637.63;;;10.08;85.40
41334;BME280;27078;46.428;6.256;2023-02-15T11:19:19;97636.56;;;10.23;89.54
41334;BME280;27078;46.428;6.256;2023-02-15T11:21:49;97628.81;;;10.20;85.26
41334;BME280;27078;46.428;6.256;2023-02-15T11:24:18;97631.06;;;10.26;86.58
41334;BME280;27078;46.428;6.256;2023-02-15T11:26:57;97633.53;;;10.29;90.10
41334;BME280;27078;46.428;6.256;2023-02-15T11:29:32;97627.69;;;10.37;88.38
41334;BME280;27078;46.428;6.256;2023-02-15T11:32:02;97620.31;;;10.42;86.43
41334;BME280;27078;46.428;6.256;2023-02-15T11:34:36;97620.09;;;10.45;88.73
41334;BME280;27078;46.428;6.256;2023-02-15T11:37:17;97619.25;;;10.45;86.48
41334;BME280;27078;46.428;6.256;2023-02-15T11:39:44;97624.94;;;10.51;86.28
41334;BME280;27078;46.428;6.256;2023-02-15T11:42:20;97622.22;;;10.53;86.91
41334;BME280;27078;46.428;6.256;2023-02-15T11:47:18;97614.78;;;10.58;83.99
41334;BME280;27078;46.428;6.256;2023-02-15T11:49:45;97618.16;;;10.60;84.39
41334;BME280;27078;46.428;6.256;2023-02-15T11:52:13;97619.66;;;10.64;82.27
41334;BME280;27078;46.428;6.256;2023-02-15T11:54:43;97608.66;;;10.70;82.77
41334;BME280;27078;46.428;6.256;2023-02-15T12:00:10;97604.88;;;10.49;79.92
41334;BME280;27078;46.428;6.256;2023-02-15T12:02:40;97600.44;;;10.36;82.71
41334;BME280;27078;46.428;6.256;2023-02-15T12:05:12;97592.66;;;10.48;81.86
41334;BME280;27078;46.428;6.256;2023-02-15T12:08:01;97595.78;;;10.53;80.70
41334;BME280;27078;46.428;6.256;2023-02-15T12:10:33;97597.69;;;10.51;79.72
41334;BME280;27078;46.428;6.256;2023-02-15T12:15:35;97586.66;;;10.70;81.58
41334;BME280;27078;46.428;6.256;2023-02-15T12:18:01;97584.97;;;10.82;81.98
41334;BME280;27078;46.428;6.256;2023-02-15T12:20:34;97584.72;;;10.85;80.18
41334;BME280;27078;46.428;6.256;2023-02-15T12:23:05;97580.91;;;10.89;80.07
41334;BME280;27078;46.428;6.256;2023-02-15T12:25:54;97576.81;;;10.85;77.61
41334;BME280;27078;46.428;6.256;2023-02-15T12:30:50;97576.53;;;11.00;74.73
41334;BME280;27078;46.428;6.256;2023-02-15T12:33:28;97578.75;;;10.94;76.89
41334;BME280;27078;46.428;6.256;2023-02-15T12:38:38;97568.38;;;11.04;76.41
41334;BME280;27078;46.428;6.256;2023-02-15T12:41:26;97569.75;;;11.09;75.49
41334;BME280;27078;46.428;6.256;2023-02-15T12:44:06;97565.19;;;11.11;73.87
41334;BME280;27078;46.428;6.256;2023-02-15T12:46:32;97562.06;;;11.17;73.24
41334;BME280;27078;46.428;6.256;2023-02-15T12:56:52;97552.94;;;11.46;72.22
41334;BME280;27078;46.428;6.256;2023-02-15T12:59:18;97549.72;;;11.53;74.25
41334;BME280;27078;46.428;6.256;2023-02-15T13:01:47;97548.41;;;11.59;72.27
41334;BME280;27078;46.428;6.256;2023-02-15T13:04:27;97538.94;;;11.68;73.37
41334;BME280;27078;46.428;6.256;2023-02-15T13:06:55;97533.75;;;11.66;71.96
41334;BME280;27078;46.428;6.256;2023-02-15T13:12:09;97528.34;;;11.68;71.86
41334;BME280;27078;46.428;6.256;2023-02-15T13:14:36;97535.19;;;11.59;70.34
41334;BME280;27078;46.428;6.256;2023-02-15T13:17:03;97528.09;;;11.59;71.74
41334;BME280;27078;46.428;6.256;2023-02-15T13:19:34;97523.03;;;11.56;71.20
41334;BME280;27078;46.428;6.256;2023-02-15T13:22:14;97523.66;;;11.60;72.01
41334;BME280;27078;46.428;6.256;2023-02-15T13:24:55;97522.94;;;11.69;70.87
41334;BME280;27078;46.428;6.256;2023-02-15T13:27:24;97517.41;;;11.72;68.98
41334;BME280;27078;46.428;6.256;2023-02-15T13:29:57;97520.66;;;11.76;70.59
41334;BME280;27078;46.428;6.256;2023-02-15T13:32:35;97520.69;;;11.87;70.22
41334;BME280;27078;46.428;6.256;2023-02-15T13:35:03;97512.72;;;11.87;68.23
41334;BME280;27078;46.428;6.256;2023-02-15T13:37:59;97509.25;;;11.87;67.02
41334;BME280;27078;46.428;6.256;2023-02-15T13:40:37;97508.09;;;11.91;67.10
41334;BME280;27078;46.428;6.256;2023-02-15T13:43:23;97508.19;;;11.89;67.05
41334;BME280;27078;46.428;6.256;2023-02-15T13:46:00;97505.06;;;11.95;68.07
41334;BME280;27078;46.428;6.256;2023-02-15T13:48:44;97509.44;;;11.96;70.29
41334;BME280;27078;46.428;6.256;2023-02-15T13:51:19;97505.31;;;11.92;67.97
41334;BME280;27078;46.428;6.256;2023-02-15T13:54:05;97501.13;;;11.90;67.75
41334;BME280;27078;46.428;6.256;2023-02-15T13:59:20;97480.88;;;11.89;66.92
41334;BME280;27078;46.428;6.256;2023-02-15T14:01:57;97493.72;;;11.82;66.75
41334;BME280;27078;46.428;6.256;2023-02-15T14:04:51;97489.63;;;11.78;66.76
41334;BME280;27078;46.428;6.256;2023-02-15T14:20:39;97493.72;;;11.82;66.83
41334;BME280;27078;46.428;6.256;2023-02-15T14:25:43;97493.47;;;11.74;67.48
41334;BME280;27078;46.428;6.256;2023-02-15T14:28:51;97490.22;;;11.70;67.59
41334;BME280;27078;46.428;6.256;2023-02-15T14:31:12;97499.50;;;11.76;68.86
41334;BME280;27078;46.428;6.256;2023-02-15T14:33:41;97492.63;;;11.73;67.77
41334;BME280;27078;46.428;6.256;2023-02-15T14:36:12;97489.03;;;11.74;66.81
41334;BME280;27078;46.428;6.256;2023-02-15T14:38:50;97499.97;;;11.70;67.14
41334;BME280;27078;46.428;6.256;2023-02-15T14:41:24;97501.63;;;11.59;65.82
41334;BME280;27078;46.428;6.256;2023-02-15T14:47:02;97495.44;;;11.01;65.44
41334;BME280;27078;46.428;6.256;2023-02-15T14:49:36;97495.59;;;10.87;66.88
41334;BME280;27078;46.428;6.256;2023-02-15T14:52:06;97502.41;;;10.78;68.06
41334;BME280;27078;46.428;6.256;2023-02-15T15:04:38;97497.91;;;10.67;68.01
41334;BME280;27078;46.428;6.256;2023-02-15T15:07:19;97497.91;;;10.67;69.49
41334;BME280;27078;46.428;6.256;2023-02-15T15:09:57;97501.94;;;10.60;68.70
41334;BME280;27078;46.428;6.256;2023-02-15T15:14:52;97494.81;;;10.36;69.23
41334;BME280;27078;46.428;6.256;2023-02-15T15:20:14;97491.28;;;10.12;67.18
41334;BME280;27078;46.428;6.256;2023-02-15T15:25:52;97495.53;;;9.76;69.20
41334;BME280;27078;46.428;6.256;2023-02-15T15:31:25;97491.25;;;9.35;73.10
41334;BME280;27078;46.428;6.256;2023-02-15T15:45:44;97504.66;;;8.92;86.07
41334;BME280;27078;46.428;6.256;2023-02-15T15:50:46;97507.94;;;8.68;96.37
41334;BME280;27078;46.428;6.256;2023-02-15T15:53:19;97509.75;;;8.68;97.40